Time;durP1;ratioP1;P1;durP2;ratioP2;P2;SDS_P1;SDS_P2;PMS_P1;PMS_P2;Temp;Humidity;BMP_temperature;BMP_pressure;BME280_temperature;BME280_humidity;BME280_pressure;Samples;Min_cycle;Max_cycle;Signal;HPM_P1;HPM_P2
2023/10/12 00:01:57;;;;;;;4.80;1.40;;;16.30;99.90;;;;;;5018469;28;20038;-81
2023/10/12 00:05:23;;;;;;;2.10;1.20;;;16.30;99.90;;;;;;5014921;28;20046;-81
2023/10/12 00:07:33;;;;;;;1.98;0.80;;;16.20;99.90;;;;;;5011653;28;20049;-81
2023/10/12 00:10:02;;;;;;;4.03;0.90;;;16.10;99.90;;;;;;5014871;28;20052;-81
2023/10/12 00:12:34;;;;;;;3.63;1.10;;;15.90;99.90;;;;;;5018744;28;20077;-81
2023/10/12 00:15:04;;;;;;;2.63;0.90;;;15.80;99.90;;;;;;5017365;28;20048;-81
2023/10/12 00:17:33;;;;;;;4.50;1.27;;;15.70;99.90;;;;;;5017673;28;20120;-81
2023/10/12 00:19:59;;;;;;;3.72;1.10;;;15.70;99.90;;;;;;5022774;28;20081;-81
2023/10/12 00:22:25;;;;;;;4.78;1.10;;;15.60;99.90;;;;;;5019163;28;20049;-81
2023/10/12 00:24:52;;;;;;;2.40;1.10;;;15.60;99.90;;;;;;5016254;28;20053;-79
2023/10/12 00:27:20;;;;;;;4.43;1.15;;;15.60;99.90;;;;;;5022004;28;20172;-90
2023/10/12 00:29:48;;;;;;;3.85;1.00;;;15.60;99.90;;;;;;5025250;28;20041;-90
2023/10/12 00:32:14;;;;;;;1.33;0.70;;;15.50;99.90;;;;;;5019378;28;20998;-90
2023/10/12 00:34:47;;;;;;;2.60;0.70;;;15.50;99.90;;;;;;5022648;28;20504;-90
2023/10/12 00:37:14;;;;;;;2.10;0.95;;;15.50;99.90;;;;;;5024503;28;20068;-89
2023/10/12 00:42:19;;;;;;;2.08;0.70;;;15.40;99.90;;;;;;5020935;28;20300;-88
2023/10/12 00:44:52;;;;;;;;;;;15.30;99.90;;;;;;5019178;28;20155;-90
2023/10/12 00:47:44;;;;;;;4.43;1.00;;;15.30;99.90;;;;;;5022232;28;19921;-89
2023/10/12 00:50:11;;;;;;;3.92;1.13;;;15.20;99.90;;;;;;5023345;28;20045;-89
2023/10/12 00:52:55;;;;;;;5.15;1.25;;;15.20;99.90;;;;;;5017514;28;20054;-89
2023/10/12 00:55:22;;;;;;;3.50;1.13;;;15.10;99.90;;;;;;5023044;28;20050;-89
2023/10/12 00:57:50;;;;;;;3.95;1.30;;;15.10;99.90;;;;;;5026803;28;20111;-88
2023/10/12 01:00:17;;;;;;;4.13;1.10;;;15.10;99.90;;;;;;5022766;28;20103;-88
2023/10/12 01:03:06;;;;;;;4.90;1.25;;;15.00;99.90;;;;;;5022718;28;20272;-89
2023/10/12 01:05:35;;;;;;;4.70;1.40;;;15.00;99.90;;;;;;5020505;28;20075;-88
2023/10/12 01:08:03;;;;;;;3.95;1.20;;;15.00;99.90;;;;;;5021520;28;20042;-88
2023/10/12 01:10:31;;;;;;;3.83;1.27;;;15.00;99.90;;;;;;5022628;28;20077;-88
2023/10/12 01:12:57;;;;;;;5.95;1.50;;;15.00;99.90;;;;;;5012987;28;20096;-88
2023/10/12 01:15:30;;;;;;;7.00;1.73;;;14.90;99.90;;;;;;5024080;28;20441;-88
2023/10/12 01:17:56;;;;;;;6.30;1.90;;;14.90;99.90;;;;;;5016685;28;20074;-76
2023/10/12 01:20:32;;;;;;;4.93;1.70;;;14.80;99.90;;;;;;5018311;28;20041;-86
2023/10/12 01:22:57;;;;;;;6.15;1.40;;;14.80;99.90;;;;;;5020445;28;20046;-84
2023/10/12 01:25:28;;;;;;;5.50;1.60;;;14.80;99.90;;;;;;5017930;28;20111;-84
2023/10/12 01:27:55;;;;;;;5.32;1.42;;;14.80;99.90;;;;;;5022921;28;20547;-84
2023/10/12 01:30:22;;;;;;;7.13;2.08;;;14.70;99.90;;;;;;5041007;28;20044;-85
2023/10/12 01:32:58;;;;;;;;;;;14.70;99.90;;;;;;5017018;28;20390;-85
2023/10/12 01:35:32;;;;;;;10.20;2.35;;;14.70;99.90;;;;;;5024534;28;19921;-84
2023/10/12 01:38:00;;;;;;;10.48;2.20;;;14.60;99.90;;;;;;5017241;28;20053;-84
2023/10/12 01:40:52;;;;;;;7.97;2.25;;;14.60;99.90;;;;;;5020681;28;20088;-84
2023/10/12 01:43:18;;;;;;;8.52;2.40;;;14.60;99.90;;;;;;5016764;28;20462;-84
2023/10/12 01:45:45;;;;;;;8.32;2.28;;;14.60;99.90;;;;;;5017136;28;20141;-84
2023/10/12 01:48:12;;;;;;;10.18;2.40;;;14.70;99.90;;;;;;5020581;28;20355;-84
2023/10/12 01:50:39;;;;;;;9.30;2.45;;;14.70;99.90;;;;;;5023417;28;20038;-90
2023/10/12 01:53:11;;;;;;;7.28;2.40;;;14.70;99.90;;;;;;5025251;28;20054;-84
2023/10/12 01:55:37;;;;;;;9.20;2.20;;;14.70;99.90;;;;;;5016010;28;20124;-85
2023/10/12 01:58:04;;;;;;;9.30;2.30;;;14.60;99.90;;;;;;5018759;28;20113;-85
2023/10/12 02:00:41;;;;;;;10.20;2.20;;;14.60;99.90;;;;;;5018862;28;20100;-84
2023/10/12 02:03:15;;;;;;;9.27;2.40;;;14.60;99.90;;;;;;5009523;28;20042;-85
2023/10/12 02:05:59;;;;;;;8.93;2.35;;;14.60;99.90;;;;;;5016163;28;20046;-85
2023/10/12 02:08:32;;;;;;;9.27;2.33;;;14.60;99.90;;;;;;5018968;28;20033;-85
2023/10/12 02:11:26;;;;;;;10.73;2.95;;;14.60;99.90;;;;;;5019700;28;20532;-85
2023/10/12 02:13:54;;;;;;;8.48;2.33;;;14.60;99.90;;;;;;5020847;28;20049;-85
2023/10/12 02:16:31;;;;;;;9.15;2.45;;;14.60;99.90;;;;;;5018575;28;20473;-85
2023/10/12 02:19:04;;;;;;;12.05;2.50;;;14.60;99.90;;;;;;5014992;28;20049;-86
2023/10/12 02:21:33;;;;;;;8.15;2.08;;;14.60;99.90;;;;;;5023123;28;20056;-86
2023/10/12 02:26:36;;;;;;;9.15;2.58;;;14.50;99.90;;;;;;5025240;28;20174;-85
2023/10/12 02:32:15;;;;;;;8.70;2.35;;;14.50;99.90;;;;;;5026046;28;20400;-85
2023/10/12 02:34:31;;;;;;;8.13;2.13;;;14.50;99.90;;;;;;5015871;28;20413;-85
2023/10/12 02:39:28;;;;;;;11.65;2.85;;;14.50;99.90;;;;;;5017013;28;20498;-85
2023/10/12 02:44:56;;;;;;;9.35;2.17;;;14.40;99.90;;;;;;5023541;28;20144;-85
2023/10/12 02:47:29;;;;;;;11.13;2.50;;;14.40;99.90;;;;;;5017032;28;20063;-85
2023/10/12 02:50:26;;;;;;;10.35;2.90;;;14.40;99.90;;;;;;5022854;28;20908;-84
2023/10/12 02:52:47;;;;;;;7.82;2.30;;;14.40;99.90;;;;;;5021674;28;20041;-85
2023/10/12 02:57:53;;;;;;;9.27;2.80;;;14.40;99.90;;;;;;5020424;28;20393;-85
2023/10/12 03:00:31;;;;;;;9.45;2.25;;;14.40;99.90;;;;;;5018226;28;20541;-86
2023/10/12 03:03:05;;;;;;;6.75;2.05;;;14.40;99.90;;;;;;5019412;28;20561;-86
2023/10/12 03:05:34;;;;;;;10.07;2.42;;;14.40;99.90;;;;;;5021817;28;20111;-86
2023/10/12 03:08:06;;;;;;;9.70;2.83;;;14.40;99.90;;;;;;5023392;28;20195;-85
2023/10/12 03:10:32;;;;;;;10.43;3.08;;;14.40;99.90;;;;;;5017810;28;20060;-85
2023/10/12 03:13:04;;;;;;;13.10;2.92;;;14.40;99.90;;;;;;5021544;28;20452;-85
2023/10/12 03:15:47;;;;;;;11.95;2.70;;;14.40;99.90;;;;;;5017081;28;20049;-85
2023/10/12 03:18:13;;;;;;;10.05;2.60;;;14.40;99.90;;;;;;5017781;28;20447;-85
2023/10/12 03:20:51;;;;;;;8.45;2.35;;;14.40;99.90;;;;;;5017776;28;20042;-85
2023/10/12 03:23:19;;;;;;;10.98;2.08;;;14.40;99.90;;;;;;5014412;28;20061;-85
2023/10/12 03:25:46;;;;;;;10.63;2.75;;;14.30;99.90;;;;;;5013917;28;20053;-85
2023/10/12 03:28:29;;;;;;;9.45;2.92;;;14.30;99.90;;;;;;5017803;28;20045;-85
2023/10/12 03:30:57;;;;;;;11.55;2.92;;;14.30;99.90;;;;;;5021821;28;20052;-86
2023/10/12 03:33:29;;;;;;;7.88;2.42;;;14.30;99.90;;;;;;5019671;28;20060;-86
2023/10/12 03:36:03;;;;;;;10.45;2.72;;;14.30;99.90;;;;;;5022536;28;20052;-86
2023/10/12 03:38:33;;;;;;;11.90;2.97;;;14.30;99.90;;;;;;5020758;28;20538;-86
2023/10/12 03:44:06;;;;;;;9.68;2.33;;;14.20;99.90;;;;;;4988265;28;20121;-86
2023/10/12 03:46:32;;;;;;;10.32;2.40;;;14.20;99.90;;;;;;5023770;28;20496;-86
2023/10/12 03:49:06;;;;;;;10.23;3.15;;;14.20;99.90;;;;;;5022764;28;20076;-87
2023/10/12 03:51:39;;;;;;;8.10;2.80;;;14.20;99.90;;;;;;5020468;28;20088;-87
2023/10/12 03:54:18;;;;;;;9.05;2.60;;;14.20;99.90;;;;;;5016121;28;20681;-87
2023/10/12 03:56:48;;;;;;;8.43;2.47;;;14.20;99.90;;;;;;5022783;28;20053;-85
2023/10/12 03:59:19;;;;;;;7.95;2.40;;;14.20;99.90;;;;;;5025306;28;20054;-84
2023/10/12 04:01:46;;;;;;;9.27;2.58;;;14.20;99.90;;;;;;5018847;28;20041;-86
2023/10/12 04:04:29;;;;;;;9.80;3.30;;;14.20;99.90;;;;;;5020910;28;20053;-86
2023/10/12 04:07:04;;;;;;;8.07;2.78;;;14.20;99.90;;;;;;5025813;28;20083;-86
2023/10/12 04:09:42;;;;;;;10.13;2.97;;;14.20;99.90;;;;;;5024975;28;20083;-85
2023/10/12 04:14:55;;;;;;;8.45;2.97;;;14.10;99.90;;;;;;5018810;28;20489;-86
2023/10/12 04:28:08;;;;;;;9.70;3.30;;;14.20;99.90;;;;;;5024070;28;20041;-86
2023/10/12 04:31:12;;;;;;;11.23;3.17;;;14.20;99.90;;;;;;5019442;28;20525;-85
2023/10/12 04:33:24;;;;;;;10.50;3.70;;;14.20;99.90;;;;;;5018751;28;20053;-85
2023/10/12 04:39:11;;;;;;;9.70;3.90;;;14.10;99.90;;;;;;5025963;28;20195;-86
2023/10/12 04:43:53;;;;;;;8.43;3.30;;;14.10;99.90;;;;;;5017691;28;20489;-86
2023/10/12 04:48:48;;;;;;;11.35;3.67;;;14.10;99.90;;;;;;5011076;28;20089;-87
2023/10/12 04:51:21;;;;;;;9.77;3.65;;;14.20;99.90;;;;;;5018644;28;20049;-87
2023/10/12 04:53:57;;;;;;;9.60;3.08;;;14.20;99.90;;;;;;5025945;28;20049;-87
2023/10/12 04:56:26;;;;;;;11.70;3.97;;;14.20;99.90;;;;;;5011927;28;20050;-86
2023/10/12 04:58:56;;;;;;;10.38;3.40;;;14.10;99.90;;;;;;5020267;28;20153;-87
2023/10/12 05:01:28;;;;;;;8.82;3.05;;;14.20;99.90;;;;;;5022253;28;20088;-87
2023/10/12 05:04:08;;;;;;;11.60;3.90;;;14.10;99.90;;;;;;5019935;28;20033;-87
2023/10/12 05:06:46;;;;;;;9.93;3.22;;;14.20;99.90;;;;;;5025886;28;20388;-86
2023/10/12 05:09:12;;;;;;;9.55;3.28;;;14.20;99.90;;;;;;5015935;28;20045;-86
2023/10/12 05:11:39;;;;;;;10.02;3.78;;;14.20;99.90;;;;;;5028618;28;20550;-87
2023/10/12 05:14:14;;;;;;;13.98;3.95;;;14.10;99.90;;;;;;5015921;28;20057;-86
2023/10/12 05:16:42;;;;;;;10.50;3.75;;;14.10;99.90;;;;;;5019645;28;20050;-87
2023/10/12 05:19:10;;;;;;;10.57;3.75;;;14.10;99.90;;;;;;5021738;28;20053;-87
2023/10/12 05:21:35;;;;;;;;;;;14.10;99.90;;;;;;5026987;28;20537;-87
2023/10/12 05:24:01;;;;;;;8.48;3.63;;;14.10;99.90;;;;;;5016219;28;19996;-87
2023/10/12 05:26:27;;;;;;;11.90;4.63;;;14.10;99.90;;;;;;5023935;28;20060;-87
2023/10/12 05:29:17;;;;;;;10.20;4.20;;;14.10;99.90;;;;;;5019658;28;20035;-87
2023/10/12 05:31:48;;;;;;;9.50;4.28;;;14.10;99.90;;;;;;5020391;28;20128;-86
2023/10/12 05:34:52;;;;;;;11.88;4.60;;;14.10;99.90;;;;;;5020753;28;20044;-86
2023/10/12 05:37:23;;;;;;;10.85;4.68;;;14.10;99.90;;;;;;5020937;28;20041;-87
2023/10/12 05:39:52;;;;;;;11.60;4.85;;;14.10;99.90;;;;;;5021499;28;20080;-86
2023/10/12 05:42:25;;;;;;;11.52;4.90;;;14.20;99.90;;;;;;5019609;28;20389;-86
2023/10/12 05:44:53;;;;;;;9.38;5.53;;;14.10;99.90;;;;;;5022000;28;20049;-88
2023/10/12 05:47:31;;;;;;;13.02;5.07;;;14.10;99.90;;;;;;5017306;28;20050;-87
2023/10/12 05:49:57;;;;;;;14.30;5.32;;;14.10;99.90;;;;;;5017064;28;20041;-87
2023/10/12 05:52:24;;;;;;;10.80;5.43;;;14.10;99.90;;;;;;5012755;28;20116;-77
2023/10/12 05:54:52;;;;;;;;;;;14.10;99.90;;;;;;5029361;28;20092;-88
2023/10/12 05:57:19;;;;;;;10.52;5.15;;;14.10;99.90;;;;;;5031261;28;20438;-89
2023/10/12 05:59:49;;;;;;;13.02;5.75;;;14.10;99.90;;;;;;5019660;28;20119;-77
2023/10/12 06:02:17;;;;;;;14.45;5.75;;;14.10;99.90;;;;;;5022514;28;20129;-87
2023/10/12 06:04:44;;;;;;;12.07;5.63;;;14.10;99.90;;;;;;5028751;28;20049;-87
2023/10/12 06:07:10;;;;;;;12.47;5.23;;;14.10;99.90;;;;;;5017531;28;20049;-74
2023/10/12 06:09:37;;;;;;;18.08;6.35;;;14.20;99.90;;;;;;5025673;28;20085;-87
2023/10/12 06:12:07;;;;;;;13.43;5.55;;;14.10;99.90;;;;;;5023471;28;20049;-87
2023/10/12 06:14:34;;;;;;;10.18;5.40;;;14.20;99.90;;;;;;5028832;28;20053;-87
2023/10/12 06:17:21;;;;;;;12.35;5.95;;;14.10;99.90;;;;;;5025324;28;20489;-87
2023/10/12 06:19:49;;;;;;;9.70;5.28;;;14.10;99.90;;;;;;5019918;28;20399;-87
2023/10/12 06:22:23;;;;;;;9.32;5.25;;;14.10;99.90;;;;;;5028483;28;20088;-88
2023/10/12 06:24:52;;;;;;;12.65;5.05;;;14.10;99.90;;;;;;5021026;28;20049;-87
2023/10/12 06:29:44;;;;;;;12.07;5.45;;;14.10;99.90;;;;;;5030829;28;20107;-87
2023/10/12 06:32:18;;;;;;;11.98;5.30;;;14.10;99.90;;;;;;5031177;28;20091;-87
2023/10/12 06:34:44;;;;;;;11.48;5.22;;;14.10;99.90;;;;;;5026522;28;20041;-87
2023/10/12 06:42:39;;;;;;;12.35;5.35;;;14.10;99.90;;;;;;5025329;28;20076;-88
2023/10/12 06:45:08;;;;;;;11.40;4.80;;;14.10;99.90;;;;;;5028475;28;20480;-88
2023/10/12 06:47:44;;;;;;;10.93;4.50;;;14.10;99.90;;;;;;5021962;28;20144;-87
2023/10/12 06:50:17;;;;;;;12.95;4.80;;;14.10;99.90;;;;;;5025188;28;20098;-88
2023/10/12 06:52:43;;;;;;;10.70;4.18;;;14.10;99.90;;;;;;5039367;28;20772;-89
2023/10/12 06:55:21;;;;;;;8.30;4.35;;;14.10;99.90;;;;;;5019962;28;20053;-88
2023/10/12 06:57:52;;;;;;;11.93;5.22;;;14.10;99.90;;;;;;5025375;28;20060;-88
2023/10/12 07:00:33;;;;;;;11.43;4.38;;;14.10;99.90;;;;;;5019111;28;20587;-88
2023/10/12 07:03:00;;;;;;;10.32;4.95;;;14.10;99.90;;;;;;5023617;28;20034;-88
2023/10/12 07:05:32;;;;;;;13.25;5.30;;;14.10;99.90;;;;;;5021659;28;20076;-88
2023/10/12 07:07:58;;;;;;;10.82;4.80;;;14.10;99.90;;;;;;5028859;28;20029;-87
2023/10/12 07:10:28;;;;;;;12.23;4.97;;;14.10;99.90;;;;;;5023697;28;20049;-88
2023/10/12 07:12:59;;;;;;;11.65;4.60;;;14.10;99.90;;;;;;5020271;28;20496;-88
2023/10/12 07:15:31;;;;;;;13.45;4.90;;;14.10;99.90;;;;;;5025391;28;20041;-81
2023/10/12 07:17:57;;;;;;;11.60;4.82;;;14.10;99.90;;;;;;5016819;28;20067;-91
2023/10/12 07:22:58;;;;;;;12.70;4.60;;;14.10;99.90;;;;;;5025468;28;20397;-73
2023/10/12 07:25:26;;;;;;;10.88;4.90;;;14.10;99.90;;;;;;5023309;28;20061;-84
2023/10/12 07:28:01;;;;;;;11.82;5.40;;;14.10;99.90;;;;;;5021824;28;20156;-87
2023/10/12 07:30:31;;;;;;;12.88;4.88;;;14.10;99.90;;;;;;5013789;28;20544;-83
2023/10/12 07:33:07;;;;;;;13.18;5.15;;;14.10;99.90;;;;;;5029298;28;20044;-84
2023/10/12 07:35:38;;;;;;;11.85;4.45;;;14.20;99.90;;;;;;5023632;28;20485;-85
2023/10/12 07:38:12;;;;;;;11.73;4.28;;;14.20;99.90;;;;;;5011573;28;20054;-88
2023/10/12 07:40:48;;;;;;;11.90;5.10;;;14.20;99.90;;;;;;5023026;28;20049;-85
2023/10/12 07:43:18;;;;;;;11.60;4.87;;;14.30;99.90;;;;;;5040539;28;20077;-78
2023/10/12 07:45:48;;;;;;;10.32;4.68;;;14.30;99.90;;;;;;5018126;28;20068;-86
2023/10/12 07:48:29;;;;;;;13.88;4.65;;;14.30;99.90;;;;;;5022488;28;20049;-87
2023/10/12 07:50:56;;;;;;;15.02;5.18;;;14.30;99.90;;;;;;5017645;28;20141;-81
2023/10/12 07:53:24;;;;;;;11.55;5.43;;;14.30;99.90;;;;;;5024008;28;20037;-82
2023/10/12 07:55:58;;;;;;;11.38;5.05;;;14.40;99.90;;;;;;5013372;28;20041;-81
2023/10/12 07:58:29;;;;;;;13.15;4.93;;;14.50;99.90;;;;;;5020822;28;20057;-82
2023/10/12 08:03:50;;;;;;;12.23;5.07;;;14.60;99.90;;;;;;5010319;28;20096;-81
2023/10/12 08:06:16;;;;;;;13.07;4.80;;;14.70;99.90;;;;;;5018119;28;20057;-83
2023/10/12 08:08:45;;;;;;;10.32;4.20;;;14.80;99.90;;;;;;5014931;28;20489;-86
2023/10/12 08:11:27;;;;;;;11.60;4.07;;;14.90;99.90;;;;;;5019382;28;20045;-83
2023/10/12 08:13:55;;;;;;;12.80;3.92;;;14.90;99.90;;;;;;5021356;28;20056;-79
2023/10/12 08:16:26;;;;;;;11.63;3.50;;;15.00;99.90;;;;;;5018109;28;20683;-86
2023/10/12 08:24:09;;;;;;;10.00;2.90;;;15.20;99.90;;;;;;5020816;28;20125;-82
2023/10/12 08:39:39;;;;;;;10.98;2.90;;;15.40;99.90;;;;;;5012353;28;20057;-84
2023/10/12 08:45:07;;;;;;;15.15;3.50;;;15.50;99.90;;;;;;5022267;28;20083;-82
2023/10/12 08:52:31;;;;;;;11.15;2.88;;;15.50;99.90;;;;;;5009718;28;20468;-85
2023/10/12 08:55:11;;;;;;;11.15;3.03;;;15.50;99.90;;;;;;5015730;28;20096;-86
2023/10/12 08:58:01;;;;;;;12.25;2.78;;;15.50;99.90;;;;;;5013811;28;20519;-88
2023/10/12 09:05:54;;;;;;;10.50;2.90;;;15.50;99.90;;;;;;5014832;28;20045;-83
2023/10/12 09:13:46;;;;;;;8.35;2.50;;;15.50;99.90;;;;;;5022637;28;20016;-80
2023/10/12 09:16:14;;;;;;;10.70;2.47;;;15.50;99.90;;;;;;5020294;28;20401;-84
2023/10/12 09:18:47;;;;;;;9.57;2.08;;;15.50;99.90;;;;;;5027965;28;20119;-84
2023/10/12 09:23:50;;;;;;;14.43;2.50;;;15.50;99.90;;;;;;5018059;28;20144;-83
2023/10/12 09:26:25;;;;;;;9.82;2.42;;;15.50;99.90;;;;;;5020333;28;20093;-86
2023/10/12 09:29:08;;;;;;;11.07;2.72;;;15.50;99.90;;;;;;5014686;28;20477;-85
2023/10/12 09:36:55;;;;;;;11.02;1.90;;;15.60;99.90;;;;;;5022028;28;20086;-84
2023/10/12 09:39:27;;;;;;;13.05;2.30;;;15.50;99.90;;;;;;5017616;28;20056;-85
2023/10/12 09:41:58;;;;;;;9.20;2.30;;;15.60;99.90;;;;;;5016225;28;20046;-85
2023/10/12 09:44:26;;;;;;;10.38;2.45;;;15.60;99.90;;;;;;5020121;28;20120;-84
2023/10/12 09:46:56;;;;;;;11.15;2.60;;;15.60;99.90;;;;;;5015916;28;20424;-86
2023/10/12 09:49:27;;;;;;;11.23;2.92;;;15.60;99.90;;;;;;5025629;28;20042;-89
2023/10/12 09:52:04;;;;;;;12.02;3.10;;;15.70;99.90;;;;;;5008974;28;20070;-88
2023/10/12 09:54:52;;;;;;;12.43;2.90;;;15.70;99.90;;;;;;5015501;28;20054;-84
2023/10/12 09:57:24;;;;;;;13.10;3.40;;;15.70;99.90;;;;;;5012921;28;20065;-81
2023/10/12 09:59:59;;;;;;;11.80;2.72;;;15.70;99.90;;;;;;5013200;28;20401;-82
2023/10/12 10:02:29;;;;;;;10.88;2.83;;;15.70;99.90;;;;;;5016222;28;20187;-84
2023/10/12 10:05:11;;;;;;;12.85;2.80;;;15.70;99.90;;;;;;5016728;28;20497;-86
2023/10/12 10:07:42;;;;;;;10.70;2.40;;;15.80;99.90;;;;;;5024967;28;20053;-85
2023/10/12 10:10:27;;;;;;;11.98;2.72;;;15.80;99.90;;;;;;5013835;28;20378;-81
2023/10/12 10:12:52;;;;;;;11.18;2.38;;;15.90;99.90;;;;;;5021945;28;20053;-81
2023/10/12 10:15:24;;;;;;;8.75;2.47;;;15.90;99.90;;;;;;5020619;28;20045;-84
2023/10/12 10:17:55;;;;;;;10.40;3.00;;;15.90;99.90;;;;;;5016469;28;20052;-85
2023/10/12 10:23:01;;;;;;;12.68;2.75;;;16.00;99.90;;;;;;5011199;28;20133;-86
2023/10/12 10:25:46;;;;;;;11.90;2.72;;;16.00;99.90;;;;;;5019209;28;20081;-92
2023/10/12 10:28:27;;;;;;;9.90;2.70;;;16.00;99.90;;;;;;5019064;28;20879;-93
2023/10/12 10:31:01;;;;;;;11.30;2.92;;;16.10;99.90;;;;;;5008667;28;20058;-91
2023/10/12 10:33:29;;;;;;;10.07;2.63;;;16.10;99.90;;;;;;5020503;28;20057;-91
2023/10/12 10:36:00;;;;;;;;;;;16.10;99.90;;;;;;5024099;28;20056;-91
2023/10/12 10:38:34;;;;;;;11.48;2.83;;;16.10;99.90;;;;;;5017379;28;20406;-91
2023/10/12 10:41:07;;;;;;;9.05;2.97;;;16.10;99.90;;;;;;5029358;28;20519;-93
2023/10/12 10:43:39;;;;;;;11.45;2.80;;;16.10;99.90;;;;;;5028458;28;20473;-88
2023/10/12 10:46:11;;;;;;;13.40;3.20;;;16.20;99.90;;;;;;5023230;28;20068;-84
2023/10/12 10:48:49;;;;;;;13.23;2.58;;;16.20;99.90;;;;;;5013296;28;20076;-88
2023/10/12 10:51:24;;;;;;;13.50;2.67;;;16.30;99.90;;;;;;5011845;28;20497;-88
2023/10/12 10:53:53;;;;;;;11.30;2.88;;;16.40;99.90;;;;;;5017580;28;20053;-88
2023/10/12 10:56:35;;;;;;;9.45;2.85;;;16.40;99.90;;;;;;5018748;28;20519;-84
2023/10/12 10:59:12;;;;;;;9.98;2.65;;;16.40;99.90;;;;;;5024939;28;20056;-81
2023/10/12 11:01:48;;;;;;;9.68;2.97;;;16.40;99.90;;;;;;5012719;28;20041;-85
2023/10/12 11:07:03;;;;;;;11.75;2.83;;;16.40;99.90;;;;;;5017800;28;20084;-84
2023/10/12 11:09:31;;;;;;;11.95;2.67;;;16.40;99.90;;;;;;5020270;28;20049;-83
2023/10/12 11:12:00;;;;;;;14.43;2.95;;;16.40;99.90;;;;;;5015431;28;20049;-81
2023/10/12 11:14:32;;;;;;;9.70;2.75;;;16.40;99.90;;;;;;5015186;28;20512;-81
2023/10/12 11:17:00;;;;;;;9.60;2.70;;;16.40;99.90;;;;;;5026518;28;20048;-82
2023/10/12 11:19:27;;;;;;;13.38;2.55;;;16.40;99.90;;;;;;5025039;28;20049;-81
2023/10/12 11:21:53;;;;;;;8.98;2.45;;;16.50;99.90;;;;;;5023869;28;20046;-80
2023/10/12 11:24:20;;;;;;;15.10;3.47;;;16.50;99.90;;;;;;5018645;28;20493;-84
2023/10/12 11:26:54;;;;;;;12.32;2.40;;;16.50;99.90;;;;;;5016386;28;20048;-91
2023/10/12 11:29:22;;;;;;;11.95;3.05;;;16.60;99.90;;;;;;5020099;28;20045;-91
2023/10/12 11:32:08;;;;;;;8.85;2.30;;;16.60;99.90;;;;;;5017250;28;20045;-91
2023/10/12 11:34:55;;;;;;;7.57;2.17;;;16.60;99.90;;;;;;5015510;28;20050;-88
2023/10/12 11:37:21;;;;;;;11.88;3.10;;;16.60;99.90;;;;;;5016954;28;20041;-88
2023/10/12 11:39:49;;;;;;;11.55;3.15;;;16.60;99.90;;;;;;5021487;28;20072;-87
2023/10/12 11:42:14;;;;;;;11.88;2.85;;;16.60;99.90;;;;;;5015076;28;20077;-89
2023/10/12 11:44:48;;;;;;;8.95;2.22;;;16.60;99.90;;;;;;5014332;28;20493;-87
2023/10/12 11:47:25;;;;;;;11.93;2.75;;;16.60;99.90;;;;;;5009686;28;20042;-88
2023/10/12 11:49:58;;;;;;;10.93;2.50;;;16.60;99.90;;;;;;5019396;28;20049;-88
2023/10/12 11:52:30;;;;;;;10.88;2.45;;;16.60;99.90;;;;;;5019245;28;20076;-88
2023/10/12 11:55:18;;;;;;;13.65;2.83;;;16.60;99.90;;;;;;5024972;28;20087;-71
2023/10/12 11:57:54;;;;;;;12.13;2.97;;;16.60;99.90;;;;;;5019274;28;20714;-72
2023/10/12 12:00:21;;;;;;;10.05;2.78;;;16.50;99.90;;;;;;5025128;28;20065;-81
2023/10/12 12:02:52;;;;;;;11.98;2.60;;;16.50;99.90;;;;;;5020535;28;20059;-82
2023/10/12 12:05:19;;;;;;;12.57;2.80;;;16.50;99.90;;;;;;5025472;28;20050;-87
2023/10/12 12:07:51;;;;;;;10.88;2.88;;;16.40;99.90;;;;;;5024929;28;20045;-83
2023/10/12 12:10:18;;;;;;;10.82;2.72;;;16.40;99.90;;;;;;5025980;28;20524;-82
2023/10/12 12:12:44;;;;;;;9.90;2.60;;;16.40;99.90;;;;;;5022073;28;20587;-87
2023/10/12 12:15:14;;;;;;;12.32;2.80;;;16.40;99.90;;;;;;5017786;28;20045;-88
2023/10/12 12:17:40;;;;;;;11.63;2.55;;;16.30;99.90;;;;;;5024381;28;20094;-81
2023/10/12 12:20:15;;;;;;;9.80;2.42;;;16.30;99.90;;;;;;5013935;28;20038;-86
2023/10/12 12:22:43;;;;;;;9.15;2.17;;;16.30;99.90;;;;;;5017589;28;20473;-87
2023/10/12 12:25:18;;;;;;;16.38;3.00;;;16.20;99.90;;;;;;5020453;28;20054;-82
2023/10/12 12:27:48;;;;;;;11.85;2.95;;;16.20;99.90;;;;;;5017660;28;20052;-76
2023/10/12 12:30:24;;;;;;;8.57;2.40;;;16.20;99.90;;;;;;5015274;28;20048;-80
2023/10/12 12:32:50;;;;;;;12.70;2.45;;;16.20;99.90;;;;;;5014466;28;20676;-80
2023/10/12 12:35:15;;;;;;;11.50;2.38;;;16.10;99.90;;;;;;5019210;28;20046;-77
2023/10/12 12:37:41;;;;;;;10.35;2.40;;;16.10;99.90;;;;;;5016435;28;20060;-77
2023/10/12 12:42:51;;;;;;;12.38;2.38;;;16.00;99.90;;;;;;5020199;28;20132;-76
2023/10/12 12:45:17;;;;;;;10.65;2.50;;;15.90;99.90;;;;;;5021778;28;20501;-76
2023/10/12 12:47:43;;;;;;;11.10;2.30;;;15.80;99.90;;;;;;5007703;28;20046;-76
2023/10/12 12:50:09;;;;;;;12.68;2.40;;;15.80;99.90;;;;;;5010578;28;20080;-76
2023/10/12 12:52:36;;;;;;;9.48;2.10;;;15.80;99.90;;;;;;5008046;28;20068;-76
2023/10/12 12:55:09;;;;;;;9.07;2.13;;;15.70;99.90;;;;;;5010198;28;20049;-76
2023/10/12 12:57:38;;;;;;;9.63;2.15;;;15.70;99.90;;;;;;5018141;28;20049;-75
2023/10/12 13:00:08;;;;;;;9.77;2.10;;;15.60;99.90;;;;;;5021880;28;20056;-81
2023/10/12 13:02:34;;;;;;;11.55;2.50;;;15.60;99.90;;;;;;5018978;28;20046;-77
2023/10/12 13:05:00;;;;;;;11.07;2.55;;;15.60;99.90;;;;;;5023226;28;20041;-77
2023/10/12 13:07:28;;;;;;;9.40;2.05;;;15.50;99.90;;;;;;5021489;28;20068;-79
2023/10/12 13:09:53;;;;;;;11.52;2.55;;;15.40;99.90;;;;;;5025089;28;20057;-78
2023/10/12 13:12:19;;;;;;;10.93;2.35;;;15.30;99.90;;;;;;5012993;28;20456;-79
2023/10/12 13:14:45;;;;;;;10.70;2.25;;;15.30;99.90;;;;;;5023640;28;20044;-76
2023/10/12 13:17:12;;;;;;;12.43;2.70;;;15.20;99.90;;;;;;5007065;28;20179;-78
2023/10/12 13:19:38;;;;;;;16.38;3.60;;;15.20;99.90;;;;;;5015305;28;20133;-78
2023/10/12 13:22:03;;;;;;;8.55;2.28;;;15.20;99.90;;;;;;5022604;28;20045;-78
2023/10/12 13:24:35;;;;;;;11.10;2.40;;;15.10;99.90;;;;;;5012151;28;20045;-81
2023/10/12 13:27:08;;;;;;;10.65;2.83;;;15.10;99.90;;;;;;5017153;28;20171;-84
2023/10/12 13:29:34;;;;;;;10.57;2.70;;;15.10;99.90;;;;;;5024523;28;20129;-85
2023/10/12 13:32:00;;;;;;;10.25;2.75;;;15.10;99.90;;;;;;5019221;28;20130;-83
2023/10/12 13:34:27;;;;;;;10.23;2.38;;;15.00;99.90;;;;;;5014061;28;20760;-84
2023/10/12 13:36:55;;;;;;;11.75;2.55;;;15.10;99.90;;;;;;5016615;28;20837;-85
2023/10/12 13:39:25;;;;;;;10.88;3.05;;;15.10;99.90;;;;;;5017783;28;20053;-86
2023/10/12 13:41:51;;;;;;;13.18;3.20;;;15.10;99.90;;;;;;5024146;28;20068;-84
2023/10/12 13:44:24;;;;;;;11.52;3.28;;;15.10;99.90;;;;;;5042372;28;20042;-84
2023/10/12 13:46:51;;;;;;;12.95;3.25;;;15.00;99.90;;;;;;5027436;28;20474;-85
2023/10/12 13:49:20;;;;;;;12.25;2.92;;;15.00;99.90;;;;;;5019633;28;20049;-84
2023/10/12 13:51:48;;;;;;;13.65;3.10;;;15.00;99.90;;;;;;5010086;28;20439;-84
2023/10/12 13:54:14;;;;;;;12.18;3.17;;;15.00;99.90;;;;;;5024195;28;20096;-86
2023/10/12 13:56:48;;;;;;;8.98;2.40;;;15.00;99.90;;;;;;5016394;28;20124;-87
2023/10/12 13:59:16;;;;;;;10.77;2.72;;;14.90;99.90;;;;;;5018724;28;20657;-83
2023/10/12 14:01:42;;;;;;;10.07;2.55;;;14.90;99.90;;;;;;5012024;28;20049;-87
2023/10/12 14:06:56;;;;;;;9.75;2.90;;;15.00;99.90;;;;;;5010474;28;20084;-89
2023/10/12 14:09:27;;;;;;;11.02;3.28;;;14.90;99.90;;;;;;5020634;28;20076;-85
2023/10/12 14:11:54;;;;;;;12.90;3.30;;;15.00;99.90;;;;;;5024852;28;20485;-82
2023/10/12 14:14:20;;;;;;;11.55;3.53;;;14.90;99.90;;;;;;5016516;28;20049;-81
2023/10/12 14:16:46;;;;;;;11.15;3.38;;;14.90;99.90;;;;;;5018950;28;20058;-82
2023/10/12 14:19:16;;;;;;;10.60;3.30;;;14.90;99.90;;;;;;5019502;28;20049;-86
2023/10/12 14:21:42;;;;;;;10.15;3.55;;;14.80;99.90;;;;;;5023397;28;20034;-89
2023/10/12 14:24:08;;;;;;;11.05;3.92;;;14.80;99.90;;;;;;5023782;28;20060;-87
2023/10/12 14:26:35;;;;;;;9.07;3.20;;;14.80;99.90;;;;;;5022462;28;20073;-89
2023/10/12 14:29:05;;;;;;;11.45;3.35;;;14.80;99.90;;;;;;5023047;28;20050;-87
2023/10/12 14:31:32;;;;;;;9.70;3.50;;;14.80;99.90;;;;;;5027096;28;20050;-86
2023/10/12 14:33:59;;;;;;;9.23;3.40;;;14.70;99.90;;;;;;5031593;28;20046;-88
2023/10/12 14:36:26;;;;;;;10.20;3.30;;;14.70;99.90;;;;;;5012742;28;20045;-89
2023/10/12 14:38:55;;;;;;;10.95;3.80;;;14.70;99.90;;;;;;5018785;28;20058;-79
2023/10/12 14:41:25;;;;;;;8.55;3.33;;;14.70;99.90;;;;;;5011912;28;20057;-81
2023/10/12 14:43:51;;;;;;;10.60;3.53;;;14.70;99.90;;;;;;5017702;28;20049;-79
2023/10/12 14:46:20;;;;;;;9.60;3.53;;;14.70;99.90;;;;;;5024955;28;20515;-84
2023/10/12 14:48:50;;;;;;;10.10;3.65;;;14.70;99.90;;;;;;5022967;28;20046;-85
2023/10/12 14:51:25;;;;;;;10.98;3.50;;;14.60;99.90;;;;;;5021937;28;20085;-89
2023/10/12 14:53:51;;;;;;;12.02;3.13;;;14.60;99.90;;;;;;5019657;28;20076;-82